sensor_id;sensor_type;location;lat;lon;timestamp;P1;durP1;ratioP1;P2;durP2;ratioP2
66575;SDS011;53428;47.686;16.584;2023-08-20T00:00:07;22.45;;;15.30;;
66575;SDS011;53428;47.686;16.584;2023-08-20T00:05:10;18.63;;;14.43;;
66575;SDS011;53428;47.686;16.584;2023-08-20T00:10:09;20.33;;;14.48;;
66575;SDS011;53428;47.686;16.584;2023-08-20T00:15:09;16.88;;;14.00;;
66575;SDS011;53428;47.686;16.584;2023-08-20T00:20:09;19.00;;;15.20;;
66575;SDS011;53428;47.686;16.584;2023-08-20T00:25:12;17.85;;;15.35;;
66575;SDS011;53428;47.686;16.584;2023-08-20T00:30:12;21.25;;;16.75;;
66575;SDS011;53428;47.686;16.584;2023-08-20T00:35:12;19.90;;;15.30;;
66575;SDS011;53428;47.686;16.584;2023-08-20T00:40:11;21.35;;;16.55;;
66575;SDS011;53428;47.686;16.584;2023-08-20T00:45:10;35.90;;;26.92;;
66575;SDS011;53428;47.686;16.584;2023-08-20T00:50:11;23.67;;;19.10;;
66575;SDS011;53428;47.686;16.584;2023-08-20T00:55:11;21.92;;;17.35;;
66575;SDS011;53428;47.686;16.584;2023-08-20T01:00:12;23.08;;;16.42;;
66575;SDS011;53428;47.686;16.584;2023-08-20T01:05:11;20.63;;;16.08;;
66575;SDS011;53428;47.686;16.584;2023-08-20T01:10:18;17.50;;;15.50;;
66575;SDS011;53428;47.686;16.584;2023-08-20T01:15:24;19.48;;;16.70;;
66575;SDS011;53428;47.686;16.584;2023-08-20T01:20:25;20.65;;;14.88;;
66575;SDS011;53428;47.686;16.584;2023-08-20T01:26:15;19.08;;;16.95;;
66575;SDS011;53428;47.686;16.584;2023-08-20T01:31:03;20.13;;;16.30;;
66575;SDS011;53428;47.686;16.584;2023-08-20T01:36:06;21.50;;;16.30;;
66575;SDS011;53428;47.686;16.584;2023-08-20T01:41:08;19.63;;;16.35;;
66575;SDS011;53428;47.686;16.584;2023-08-20T01:46:09;19.45;;;15.85;;
66575;SDS011;53428;47.686;16.584;2023-08-20T01:51:08;20.17;;;15.45;;
66575;SDS011;53428;47.686;16.584;2023-08-20T01:56:11;23.90;;;17.20;;
66575;SDS011;53428;47.686;16.584;2023-08-20T02:01:11;16.05;;;14.25;;
66575;SDS011;53428;47.686;16.584;2023-08-20T02:06:10;19.13;;;15.48;;
66575;SDS011;53428;47.686;16.584;2023-08-20T02:11:10;25.00;;;16.50;;
66575;SDS011;53428;47.686;16.584;2023-08-20T02:16:09;23.38;;;17.02;;
66575;SDS011;53428;47.686;16.584;2023-08-20T02:21:08;18.10;;;16.05;;
66575;SDS011;53428;47.686;16.584;2023-08-20T02:26:09;24.15;;;17.98;;
66575;SDS011;53428;47.686;16.584;2023-08-20T02:31:09;24.85;;;17.02;;
66575;SDS011;53428;47.686;16.584;2023-08-20T02:36:08;20.38;;;16.50;;
66575;SDS011;53428;47.686;16.584;2023-08-20T02:41:07;22.63;;;17.25;;
66575;SDS011;53428;47.686;16.584;2023-08-20T02:46:07;19.77;;;15.93;;
66575;SDS011;53428;47.686;16.584;2023-08-20T02:51:06;21.75;;;15.50;;
66575;SDS011;53428;47.686;16.584;2023-08-20T02:56:06;19.30;;;16.27;;
66575;SDS011;53428;47.686;16.584;2023-08-20T03:01:05;18.67;;;15.32;;
66575;SDS011;53428;47.686;16.584;2023-08-20T03:06:05;20.17;;;16.60;;
66575;SDS011;53428;47.686;16.584;2023-08-20T03:11:04;21.20;;;16.50;;
66575;SDS011;53428;47.686;16.584;2023-08-20T03:16:03;24.00;;;17.75;;
66575;SDS011;53428;47.686;16.584;2023-08-20T03:21:03;25.70;;;16.33;;
66575;SDS011;53428;47.686;16.584;2023-08-20T03:26:02;22.42;;;18.48;;
66575;SDS011;53428;47.686;16.584;2023-08-20T03:31:01;23.27;;;17.42;;
66575;SDS011;53428;47.686;16.584;2023-08-20T03:36:01;23.52;;;16.58;;
66575;SDS011;53428;47.686;16.584;2023-08-20T03:41:00;24.42;;;17.05;;
66575;SDS011;53428;47.686;16.584;2023-08-20T03:46:01;20.85;;;16.13;;
66575;SDS011;53428;47.686;16.584;2023-08-20T03:51:01;19.90;;;16.73;;
66575;SDS011;53428;47.686;16.584;2023-08-20T03:56:00;23.17;;;16.95;;
66575;SDS011;53428;47.686;16.584;2023-08-20T04:01:00;19.15;;;15.98;;
66575;SDS011;53428;47.686;16.584;2023-08-20T04:05:59;23.40;;;16.70;;
66575;SDS011;53428;47.686;16.584;2023-08-20T04:10:58;21.65;;;17.00;;
66575;SDS011;53428;47.686;16.584;2023-08-20T04:15:58;22.55;;;16.98;;
66575;SDS011;53428;47.686;16.584;2023-08-20T04:20:57;24.35;;;17.63;;
66575;SDS011;53428;47.686;16.584;2023-08-20T04:25:57;21.77;;;15.82;;
66575;SDS011;53428;47.686;16.584;2023-08-20T04:30:56;19.40;;;15.80;;
66575;SDS011;53428;47.686;16.584;2023-08-20T04:35:56;23.40;;;16.88;;
66575;SDS011;53428;47.686;16.584;2023-08-20T04:40:56;27.98;;;16.05;;
66575;SDS011;53428;47.686;16.584;2023-08-20T04:45:55;20.75;;;15.88;;
66575;SDS011;53428;47.686;16.584;2023-08-20T04:50:55;16.52;;;14.65;;
66575;SDS011;53428;47.686;16.584;2023-08-20T04:55:54;19.30;;;14.68;;
66575;SDS011;53428;47.686;16.584;2023-08-20T05:00:53;20.00;;;14.55;;
66575;SDS011;53428;47.686;16.584;2023-08-20T05:05:53;22.50;;;16.13;;
66575;SDS011;53428;47.686;16.584;2023-08-20T05:10:52;20.77;;;16.52;;
66575;SDS011;53428;47.686;16.584;2023-08-20T05:15:52;18.42;;;14.63;;
66575;SDS011;53428;47.686;16.584;2023-08-20T05:20:51;17.73;;;15.07;;
66575;SDS011;53428;47.686;16.584;2023-08-20T05:25:50;17.95;;;14.82;;
66575;SDS011;53428;47.686;16.584;2023-08-20T05:30:55;19.65;;;15.63;;
66575;SDS011;53428;47.686;16.584;2023-08-20T05:35:55;20.00;;;16.17;;
66575;SDS011;53428;47.686;16.584;2023-08-20T05:40:55;24.95;;;15.80;;
66575;SDS011;53428;47.686;16.584;2023-08-20T05:45:54;18.27;;;16.17;;
66575;SDS011;53428;47.686;16.584;2023-08-20T05:50:53;17.48;;;14.50;;
66575;SDS011;53428;47.686;16.584;2023-08-20T05:55:53;18.05;;;14.98;;
66575;SDS011;53428;47.686;16.584;2023-08-20T06:00:52;18.38;;;13.88;;
66575;SDS011;53428;47.686;16.584;2023-08-20T06:05:51;17.70;;;13.23;;
66575;SDS011;53428;47.686;16.584;2023-08-20T06:10:51;23.33;;;14.73;;
66575;SDS011;53428;47.686;16.584;2023-08-20T06:15:51;15.60;;;12.60;;
66575;SDS011;53428;47.686;16.584;2023-08-20T06:20:50;16.60;;;13.82;;
66575;SDS011;53428;47.686;16.584;2023-08-20T06:25:50;18.10;;;13.07;;
66575;SDS011;53428;47.686;16.584;2023-08-20T06:30:50;18.17;;;14.90;;
66575;SDS011;53428;47.686;16.584;2023-08-20T06:35:49;16.75;;;13.43;;
66575;SDS011;53428;47.686;16.584;2023-08-20T06:40:48;15.95;;;14.25;;
66575;SDS011;53428;47.686;16.584;2023-08-20T06:45:49;15.48;;;12.75;;
66575;SDS011;53428;47.686;16.584;2023-08-20T06:50:48;15.50;;;13.90;;
66575;SDS011;53428;47.686;16.584;2023-08-20T06:55:48;14.23;;;12.55;;
66575;SDS011;53428;47.686;16.584;2023-08-20T07:00:47;16.48;;;12.80;;
66575;SDS011;53428;47.686;16.584;2023-08-20T07:05:46;14.27;;;12.65;;
66575;SDS011;53428;47.686;16.584;2023-08-20T07:10:45;16.75;;;12.73;;
66575;SDS011;53428;47.686;16.584;2023-08-20T07:15:45;14.07;;;11.60;;
66575;SDS011;53428;47.686;16.584;2023-08-20T07:20:44;14.32;;;10.90;;
66575;SDS011;53428;47.686;16.584;2023-08-20T07:25:44;12.50;;;10.63;;
66575;SDS011;53428;47.686;16.584;2023-08-20T07:30:43;14.65;;;12.02;;
66575;SDS011;53428;47.686;16.584;2023-08-20T07:40:44;15.23;;;10.75;;
66575;SDS011;53428;47.686;16.584;2023-08-20T07:45:43;12.43;;;10.70;;
66575;SDS011;53428;47.686;16.584;2023-08-20T07:50:42;15.40;;;9.68;;
66575;SDS011;53428;47.686;16.584;2023-08-20T07:55:42;20.42;;;10.68;;
66575;SDS011;53428;47.686;16.584;2023-08-20T08:00:41;10.82;;;9.35;;
66575;SDS011;53428;47.686;16.584;2023-08-20T08:05:41;10.73;;;9.25;;
66575;SDS011;53428;47.686;16.584;2023-08-20T08:10:44;13.90;;;10.13;;
66575;SDS011;53428;47.686;16.584;2023-08-20T08:15:44;14.57;;;11.38;;
66575;SDS011;53428;47.686;16.584;2023-08-20T08:20:44;11.35;;;10.25;;
66575;SDS011;53428;47.686;16.584;2023-08-20T08:25:44;11.80;;;10.25;;
66575;SDS011;53428;47.686;16.584;2023-08-20T08:30:43;11.77;;;10.35;;
66575;SDS011;53428;47.686;16.584;2023-08-20T08:35:43;11.82;;;9.70;;
66575;SDS011;53428;47.686;16.584;2023-08-20T08:40:42;10.50;;;9.40;;
66575;SDS011;53428;47.686;16.584;2023-08-20T08:45:42;10.27;;;9.18;;
66575;SDS011;53428;47.686;16.584;2023-08-20T08:50:46;9.30;;;8.38;;
66575;SDS011;53428;47.686;16.584;2023-08-20T08:55:45;10.30;;;8.35;;
66575;SDS011;53428;47.686;16.584;2023-08-20T09:00:45;9.98;;;7.95;;
66575;SDS011;53428;47.686;16.584;2023-08-20T09:05:45;11.65;;;8.88;;
66575;SDS011;53428;47.686;16.584;2023-08-20T09:10:46;10.20;;;7.68;;
66575;SDS011;53428;47.686;16.584;2023-08-20T09:15:50;9.35;;;6.45;;
66575;SDS011;53428;47.686;16.584;2023-08-20T09:20:51;7.72;;;6.95;;
66575;SDS011;53428;47.686;16.584;2023-08-20T09:25:50;8.93;;;6.35;;
66575;SDS011;53428;47.686;16.584;2023-08-20T09:30:58;7.95;;;6.85;;
66575;SDS011;53428;47.686;16.584;2023-08-20T09:36:02;7.55;;;6.20;;
66575;SDS011;53428;47.686;16.584;2023-08-20T09:41:02;7.03;;;4.90;;
66575;SDS011;53428;47.686;16.584;2023-08-20T09:46:02;15.20;;;5.88;;
66575;SDS011;53428;47.686;16.584;2023-08-20T09:51:04;7.28;;;6.57;;
66575;SDS011;53428;47.686;16.584;2023-08-20T09:56:13;14.15;;;6.07;;
66575;SDS011;53428;47.686;16.584;2023-08-20T10:01:20;7.70;;;6.95;;
66575;SDS011;53428;47.686;16.584;2023-08-20T10:06:20;9.63;;;6.70;;
66575;SDS011;53428;47.686;16.584;2023-08-20T10:11:19;10.35;;;7.10;;
66575;SDS011;53428;47.686;16.584;2023-08-20T10:16:19;6.95;;;6.25;;
66575;SDS011;53428;47.686;16.584;2023-08-20T10:21:23;8.82;;;7.40;;
66575;SDS011;53428;47.686;16.584;2023-08-20T10:26:23;8.07;;;6.82;;
66575;SDS011;53428;47.686;16.584;2023-08-20T10:31:25;9.75;;;6.70;;
66575;SDS011;53428;47.686;16.584;2023-08-20T10:36:25;9.23;;;7.88;;
66575;SDS011;53428;47.686;16.584;2023-08-20T10:41:27;8.27;;;7.32;;
66575;SDS011;53428;47.686;16.584;2023-08-20T10:46:27;10.75;;;6.80;;
66575;SDS011;53428;47.686;16.584;2023-08-20T10:56:38;8.65;;;6.63;;
66575;SDS011;53428;47.686;16.584;2023-08-20T11:01:44;7.40;;;6.55;;
66575;SDS011;53428;47.686;16.584;2023-08-20T11:06:44;8.30;;;6.30;;
66575;SDS011;53428;47.686;16.584;2023-08-20T11:11:44;7.63;;;6.68;;
66575;SDS011;53428;47.686;16.584;2023-08-20T11:16:44;10.77;;;6.63;;
66575;SDS011;53428;47.686;16.584;2023-08-20T11:21:44;7.78;;;6.47;;
66575;SDS011;53428;47.686;16.584;2023-08-20T11:26:43;7.53;;;6.25;;
66575;SDS011;53428;47.686;16.584;2023-08-20T11:31:42;6.68;;;6.18;;
66575;SDS011;53428;47.686;16.584;2023-08-20T11:36:42;7.05;;;5.93;;
66575;SDS011;53428;47.686;16.584;2023-08-20T11:41:41;9.57;;;7.05;;
66575;SDS011;53428;47.686;16.584;2023-08-20T11:46:43;9.32;;;6.18;;
66575;SDS011;53428;47.686;16.584;2023-08-20T11:51:49;6.70;;;6.03;;
66575;SDS011;53428;47.686;16.584;2023-08-20T11:56:49;10.55;;;7.38;;
66575;SDS011;53428;47.686;16.584;2023-08-20T12:01:54;7.22;;;6.60;;
66575;SDS011;53428;47.686;16.584;2023-08-20T12:12:06;10.27;;;9.35;;
66575;SDS011;53428;47.686;16.584;2023-08-20T12:17:07;7.10;;;6.35;;
66575;SDS011;53428;47.686;16.584;2023-08-20T12:22:06;7.65;;;7.05;;
66575;SDS011;53428;47.686;16.584;2023-08-20T12:27:07;7.95;;;7.22;;
66575;SDS011;53428;47.686;16.584;2023-08-20T12:32:06;8.02;;;6.65;;
66575;SDS011;53428;47.686;16.584;2023-08-20T12:37:06;8.48;;;6.90;;
66575;SDS011;53428;47.686;16.584;2023-08-20T12:42:06;9.45;;;5.55;;
66575;SDS011;53428;47.686;16.584;2023-08-20T12:47:05;5.43;;;4.85;;
66575;SDS011;53428;47.686;16.584;2023-08-20T12:52:05;6.00;;;5.38;;
66575;SDS011;53428;47.686;16.584;2023-08-20T12:57:04;5.72;;;5.18;;
66575;SDS011;53428;47.686;16.584;2023-08-20T13:02:03;10.27;;;5.40;;
66575;SDS011;53428;47.686;16.584;2023-08-20T13:12:03;6.88;;;6.10;;
66575;SDS011;53428;47.686;16.584;2023-08-20T13:17:08;10.32;;;6.43;;
66575;SDS011;53428;47.686;16.584;2023-08-20T13:22:08;6.38;;;5.85;;
66575;SDS011;53428;47.686;16.584;2023-08-20T13:27:08;6.47;;;5.10;;
66575;SDS011;53428;47.686;16.584;2023-08-20T13:32:07;5.68;;;5.13;;
66575;SDS011;53428;47.686;16.584;2023-08-20T13:37:07;6.40;;;5.80;;
66575;SDS011;53428;47.686;16.584;2023-08-20T13:42:06;6.13;;;4.60;;
66575;SDS011;53428;47.686;16.584;2023-08-20T13:47:06;4.85;;;4.38;;
66575;SDS011;53428;47.686;16.584;2023-08-20T13:52:05;5.22;;;4.63;;
66575;SDS011;53428;47.686;16.584;2023-08-20T13:57:05;6.82;;;4.63;;
66575;SDS011;53428;47.686;16.584;2023-08-20T14:02:05;6.13;;;4.25;;
66575;SDS011;53428;47.686;16.584;2023-08-20T14:12:04;8.00;;;4.38;;
66575;SDS011;53428;47.686;16.584;2023-08-20T14:22:03;7.80;;;5.40;;
66575;SDS011;53428;47.686;16.584;2023-08-20T14:27:02;7.68;;;5.05;;
66575;SDS011;53428;47.686;16.584;2023-08-20T14:32:01;5.60;;;4.82;;
66575;SDS011;53428;47.686;16.584;2023-08-20T14:37:01;7.25;;;5.05;;
66575;SDS011;53428;47.686;16.584;2023-08-20T14:42:02;5.32;;;4.82;;
66575;SDS011;53428;47.686;16.584;2023-08-20T14:47:02;4.72;;;4.43;;
66575;SDS011;53428;47.686;16.584;2023-08-20T14:52:03;8.05;;;5.20;;
66575;SDS011;53428;47.686;16.584;2023-08-20T14:57:03;5.47;;;4.97;;
66575;SDS011;53428;47.686;16.584;2023-08-20T15:02:02;6.43;;;5.55;;
66575;SDS011;53428;47.686;16.584;2023-08-20T15:12:02;7.63;;;5.50;;
66575;SDS011;53428;47.686;16.584;2023-08-20T15:17:01;5.05;;;4.53;;
66575;SDS011;53428;47.686;16.584;2023-08-20T15:22:01;8.07;;;4.65;;
66575;SDS011;53428;47.686;16.584;2023-08-20T15:27:01;6.55;;;5.95;;
66575;SDS011;53428;47.686;16.584;2023-08-20T15:32:02;6.97;;;5.63;;
66575;SDS011;53428;47.686;16.584;2023-08-20T15:37:03;8.25;;;5.47;;
66575;SDS011;53428;47.686;16.584;2023-08-20T15:42:03;5.95;;;5.18;;
66575;SDS011;53428;47.686;16.584;2023-08-20T15:52:02;6.07;;;5.43;;
66575;SDS011;53428;47.686;16.584;2023-08-20T15:57:02;9.45;;;5.68;;
66575;SDS011;53428;47.686;16.584;2023-08-20T16:02:01;6.32;;;5.72;;
66575;SDS011;53428;47.686;16.584;2023-08-20T16:07:01;6.68;;;5.63;;
66575;SDS011;53428;47.686;16.584;2023-08-20T16:12:01;7.50;;;5.90;;
66575;SDS011;53428;47.686;16.584;2023-08-20T16:17:00;8.88;;;5.97;;
66575;SDS011;53428;47.686;16.584;2023-08-20T16:22:00;9.23;;;6.20;;
66575;SDS011;53428;47.686;16.584;2023-08-20T16:27:00;5.55;;;5.10;;
66575;SDS011;53428;47.686;16.584;2023-08-20T16:32:00;7.00;;;5.20;;
66575;SDS011;53428;47.686;16.584;2023-08-20T16:36:59;7.10;;;6.15;;
66575;SDS011;53428;47.686;16.584;2023-08-20T16:41:59;8.07;;;6.18;;
66575;SDS011;53428;47.686;16.584;2023-08-20T16:46:58;10.10;;;6.43;;
66575;SDS011;53428;47.686;16.584;2023-08-20T16:51:58;7.25;;;6.30;;
66575;SDS011;53428;47.686;16.584;2023-08-20T16:56:57;13.23;;;6.28;;
66575;SDS011;53428;47.686;16.584;2023-08-20T17:01:57;10.93;;;6.13;;
66575;SDS011;53428;47.686;16.584;2023-08-20T17:06:57;8.55;;;6.32;;
66575;SDS011;53428;47.686;16.584;2023-08-20T17:11:56;8.10;;;6.68;;
66575;SDS011;53428;47.686;16.584;2023-08-20T17:16:56;10.07;;;7.22;;
66575;SDS011;53428;47.686;16.584;2023-08-20T17:21:55;8.57;;;6.78;;
66575;SDS011;53428;47.686;16.584;2023-08-20T17:26:55;8.88;;;7.60;;
66575;SDS011;53428;47.686;16.584;2023-08-20T17:31:55;9.50;;;7.47;;
66575;SDS011;53428;47.686;16.584;2023-08-20T17:36:55;10.63;;;7.32;;
66575;SDS011;53428;47.686;16.584;2023-08-20T17:41:55;9.35;;;8.13;;
66575;SDS011;53428;47.686;16.584;2023-08-20T17:46:55;12.43;;;9.10;;
66575;SDS011;53428;47.686;16.584;2023-08-20T17:51:55;11.10;;;8.98;;
66575;SDS011;53428;47.686;16.584;2023-08-20T17:56:54;9.70;;;8.27;;
66575;SDS011;53428;47.686;16.584;2023-08-20T18:01:54;9.95;;;8.35;;
66575;SDS011;53428;47.686;16.584;2023-08-20T18:06:56;13.55;;;8.70;;
66575;SDS011;53428;47.686;16.584;2023-08-20T18:11:55;16.83;;;8.88;;
66575;SDS011;53428;47.686;16.584;2023-08-20T18:16:55;14.75;;;8.30;;
66575;SDS011;53428;47.686;16.584;2023-08-20T18:21:55;14.40;;;9.10;;
66575;SDS011;53428;47.686;16.584;2023-08-20T18:26:55;10.15;;;8.77;;
66575;SDS011;53428;47.686;16.584;2023-08-20T18:31:54;9.98;;;8.48;;
66575;SDS011;53428;47.686;16.584;2023-08-20T18:36:54;9.43;;;8.52;;
66575;SDS011;53428;47.686;16.584;2023-08-20T18:41:54;10.00;;;8.95;;
66575;SDS011;53428;47.686;16.584;2023-08-20T18:46:54;9.70;;;8.20;;
66575;SDS011;53428;47.686;16.584;2023-08-20T18:51:54;12.73;;;9.13;;
66575;SDS011;53428;47.686;16.584;2023-08-20T18:56:54;15.15;;;9.65;;
66575;SDS011;53428;47.686;16.584;2023-08-20T19:01:53;12.32;;;8.82;;
66575;SDS011;53428;47.686;16.584;2023-08-20T19:06:54;10.82;;;8.80;;
66575;SDS011;53428;47.686;16.584;2023-08-20T19:11:57;14.23;;;9.05;;
66575;SDS011;53428;47.686;16.584;2023-08-20T19:16:57;10.23;;;9.23;;
66575;SDS011;53428;47.686;16.584;2023-08-20T19:22:00;17.08;;;10.23;;
66575;SDS011;53428;47.686;16.584;2023-08-20T19:27:00;16.10;;;9.25;;
66575;SDS011;53428;47.686;16.584;2023-08-20T19:31:59;13.60;;;9.48;;
66575;SDS011;53428;47.686;16.584;2023-08-20T19:37:02;19.70;;;9.68;;
66575;SDS011;53428;47.686;16.584;2023-08-20T19:42:02;16.23;;;8.88;;
66575;SDS011;53428;47.686;16.584;2023-08-20T19:47:01;14.35;;;10.15;;
66575;SDS011;53428;47.686;16.584;2023-08-20T19:52:02;15.88;;;9.35;;
66575;SDS011;53428;47.686;16.584;2023-08-20T19:57:02;11.25;;;9.25;;
66575;SDS011;53428;47.686;16.584;2023-08-20T20:02:04;12.75;;;10.40;;
66575;SDS011;53428;47.686;16.584;2023-08-20T20:07:05;13.65;;;10.38;;
66575;SDS011;53428;47.686;16.584;2023-08-20T20:12:04;13.80;;;10.68;;
66575;SDS011;53428;47.686;16.584;2023-08-20T20:17:04;21.42;;;9.85;;
66575;SDS011;53428;47.686;16.584;2023-08-20T20:22:04;12.13;;;10.30;;
66575;SDS011;53428;47.686;16.584;2023-08-20T20:27:04;10.52;;;9.48;;
66575;SDS011;53428;47.686;16.584;2023-08-20T20:32:07;12.00;;;9.45;;
66575;SDS011;53428;47.686;16.584;2023-08-20T20:37:07;16.73;;;10.55;;
66575;SDS011;53428;47.686;16.584;2023-08-20T20:42:07;10.52;;;9.43;;
66575;SDS011;53428;47.686;16.584;2023-08-20T20:47:07;9.60;;;8.60;;
66575;SDS011;53428;47.686;16.584;2023-08-20T20:52:06;14.23;;;10.70;;
66575;SDS011;53428;47.686;16.584;2023-08-20T20:57:07;12.23;;;9.25;;
66575;SDS011;53428;47.686;16.584;2023-08-20T21:02:06;12.05;;;9.73;;
66575;SDS011;53428;47.686;16.584;2023-08-20T21:07:06;19.67;;;9.30;;
66575;SDS011;53428;47.686;16.584;2023-08-20T21:12:05;13.57;;;9.85;;
66575;SDS011;53428;47.686;16.584;2023-08-20T21:17:07;10.95;;;9.63;;
66575;SDS011;53428;47.686;16.584;2023-08-20T21:22:10;11.57;;;9.13;;
66575;SDS011;53428;47.686;16.584;2023-08-20T21:27:10;16.95;;;9.73;;
66575;SDS011;53428;47.686;16.584;2023-08-20T21:32:10;11.75;;;8.48;;
66575;SDS011;53428;47.686;16.584;2023-08-20T21:37:09;10.82;;;9.10;;
66575;SDS011;53428;47.686;16.584;2023-08-20T21:42:08;13.00;;;9.48;;
66575;SDS011;53428;47.686;16.584;2023-08-20T21:47:20;11.95;;;9.95;;
66575;SDS011;53428;47.686;16.584;2023-08-20T21:52:21;11.32;;;9.30;;
66575;SDS011;53428;47.686;16.584;2023-08-20T21:57:22;13.27;;;9.82;;
66575;SDS011;53428;47.686;16.584;2023-08-20T22:02:21;11.98;;;8.60;;
66575;SDS011;53428;47.686;16.584;2023-08-20T22:07:21;10.23;;;8.75;;
66575;SDS011;53428;47.686;16.584;2023-08-20T22:12:20;13.85;;;9.05;;
66575;SDS011;53428;47.686;16.584;2023-08-20T22:17:20;9.43;;;8.43;;
66575;SDS011;53428;47.686;16.584;2023-08-20T22:22:19;10.48;;;8.90;;
66575;SDS011;53428;47.686;16.584;2023-08-20T22:27:19;11.35;;;8.35;;
66575;SDS011;53428;47.686;16.584;2023-08-20T22:32:18;10.13;;;8.48;;
66575;SDS011;53428;47.686;16.584;2023-08-20T22:37:21;20.73;;;8.60;;
66575;SDS011;53428;47.686;16.584;2023-08-20T22:42:22;8.75;;;7.55;;
66575;SDS011;53428;47.686;16.584;2023-08-20T22:47:21;8.60;;;7.68;;
66575;SDS011;53428;47.686;16.584;2023-08-20T22:52:21;15.43;;;7.82;;
66575;SDS011;53428;47.686;16.584;2023-08-20T22:57:20;9.13;;;8.23;;
66575;SDS011;53428;47.686;16.584;2023-08-20T23:02:19;11.07;;;8.20;;
66575;SDS011;53428;47.686;16.584;2023-08-20T23:07:19;14.73;;;8.30;;
66575;SDS011;53428;47.686;16.584;2023-08-20T23:12:18;9.15;;;8.13;;
66575;SDS011;53428;47.686;16.584;2023-08-20T23:17:17;11.85;;;8.30;;
66575;SDS011;53428;47.686;16.584;2023-08-20T23:22:18;12.55;;;8.02;;
66575;SDS011;53428;47.686;16.584;2023-08-20T23:27:17;10.20;;;7.80;;
66575;SDS011;53428;47.686;16.584;2023-08-20T23:32:17;8.80;;;7.68;;
66575;SDS011;53428;47.686;16.584;2023-08-20T23:37:16;10.52;;;7.57;;
66575;SDS011;53428;47.686;16.584;2023-08-20T23:42:15;10.13;;;7.65;;
66575;SDS011;53428;47.686;16.584;2023-08-20T23:47:14;16.33;;;8.75;;
66575;SDS011;53428;47.686;16.584;2023-08-20T23:52:14;10.23;;;7.53;;
66575;SDS011;53428;47.686;16.584;2023-08-20T23:57:13;14.90;;;8.20;;
